Terminal Aerodrome Forecast
Issued by NWS

Home | Current Version | Previous Version | Text Only | Print | Product List | Glossary On
Versions: 1 2 3 4 5 6 7 8 9 10 11 12 13 14 15 16 17 18 19 20
171
FTUS43 KDLH 242007 AAC
TAFHYR
TAF AMD
KHYR 242007Z 2420/2518 03010KT 6SM HZ OVC012
      TEMPO 2420/2424 OVC020
     FM250000 03006KT P6SM OVC020
     FM250200 04008KT P6SM OVC035
     FM250600 06007KT P6SM BKN020
     FM251400 07010KT P6SM BKN040=

USA.gov is the U.S. government's official web portal to all federal, state and local government web resources and services.